createdAt,value
2016-08-05T00:00:20.249Z,0
2016-08-05T00:03:31.525Z,0
2016-08-05T00:06:51.576Z,0
2016-08-05T00:09:54.811Z,0
2016-08-05T00:13:08.847Z,0
2016-08-05T00:16:21.982Z,0
2016-08-05T00:19:42.425Z,0
2016-08-05T00:22:45.611Z,0
2016-08-05T00:25:59.652Z,0
2016-08-05T00:29:13.114Z,0
2016-08-05T00:32:27.090Z,0
2016-08-05T00:35:47.225Z,0
2016-08-05T00:38:50.188Z,0
2016-08-05T00:42:04.248Z,0
2016-08-05T00:45:17.966Z,0
2016-08-05T00:48:31.818Z,0
2016-08-05T00:51:45.689Z,0
2016-08-05T00:54:59.563Z,0
2016-08-05T00:58:12.750Z,0
2016-08-05T01:01:26.767Z,0
2016-08-05T01:04:46.480Z,0
2016-08-05T01:07:49.612Z,0
2016-08-05T01:11:03.197Z,0
2016-08-05T01:14:17.106Z,0
2016-08-05T01:17:30.684Z,0
2016-08-05T01:20:49.985Z,0
2016-08-05T01:23:53.200Z,0
2016-08-05T01:27:06.931Z,0
2016-08-05T01:30:20.802Z,0
2016-08-05T01:33:34.200Z,0
2016-08-05T01:36:47.994Z,0
2016-08-05T01:40:01.308Z,0
2016-08-05T01:43:14.856Z,0
2016-08-05T01:46:28.429Z,0
2016-08-05T01:49:48.069Z,0
2016-08-05T01:52:51.212Z,0
2016-08-05T01:56:04.992Z,0
2016-08-05T01:59:18.712Z,0
2016-08-05T02:02:32.023Z,0
2016-08-05T02:05:45.884Z,0
2016-08-05T02:08:59.495Z,0
2016-08-05T02:12:13.206Z,0
2016-08-05T02:15:26.103Z,0
2016-08-05T02:18:45.420Z,0
2016-08-05T02:21:48.581Z,0
2016-08-05T02:25:02.014Z,0
2016-08-05T02:28:15.483Z,0
2016-08-05T02:31:29.035Z,0
2016-08-05T02:34:48.824Z,0
2016-08-05T02:37:51.858Z,0
2016-08-05T02:41:05.512Z,0
2016-08-05T02:44:18.801Z,0
2016-08-05T02:47:32.147Z,0
2016-08-05T02:50:45.888Z,0
2016-08-05T02:53:59.480Z,0
2016-08-05T02:57:13.287Z,0
2016-08-05T03:00:26.478Z,0
2016-08-05T03:03:46.271Z,0
2016-08-05T03:06:49.122Z,0
2016-08-05T03:10:02.660Z,1
2016-08-05T03:13:16.246Z,2
2016-08-05T03:16:30.040Z,3
2016-08-05T03:19:49.961Z,4
2016-08-05T03:22:52.747Z,7
2016-08-05T03:26:06.593Z,10
2016-08-05T03:29:20.449Z,12
2016-08-05T03:32:34.172Z,13
2016-08-05T03:35:47.814Z,16
2016-08-05T03:39:01.558Z,17
2016-08-05T03:42:15.287Z,17
2016-08-05T03:45:29.005Z,21
2016-08-05T03:48:48.080Z,26
2016-08-05T03:51:51.148Z,26
2016-08-05T03:55:04.859Z,27
2016-08-05T03:58:18.473Z,39
2016-08-05T04:01:32.336Z,40
2016-08-05T04:04:46.148Z,43
2016-08-05T04:07:59.954Z,46
2016-08-05T04:11:13.706Z,61
2016-08-05T04:14:27.532Z,97
2016-08-05T04:17:47.122Z,104
2016-08-05T04:20:50.004Z,96
2016-08-05T04:24:01.732Z,105
2016-08-05T04:27:15.218Z,148
2016-08-05T04:30:29.017Z,221
2016-08-05T04:33:48.874Z,281
2016-08-05T04:36:51.877Z,338
2016-08-05T04:40:05.533Z,290
2016-08-05T04:43:17.140Z,360
2016-08-05T04:46:30.790Z,341
2016-08-05T04:49:50.587Z,300
2016-08-05T04:52:53.360Z,236
2016-08-05T04:56:07.123Z,249
2016-08-05T04:59:20.976Z,256
2016-08-05T05:02:31.866Z,305
2016-08-05T05:05:51.126Z,317
2016-08-05T05:08:54.037Z,343
2016-08-05T05:12:07.781Z,383
2016-08-05T05:15:21.452Z,457
2016-08-05T05:18:35.285Z,535
2016-08-05T05:21:49.009Z,647
2016-08-05T05:25:02.666Z,644
2016-08-05T05:28:16.231Z,531
2016-08-05T05:31:29.985Z,521
2016-08-05T05:34:49.629Z,549
2016-08-05T05:37:52.614Z,577
2016-08-05T05:41:06.373Z,719
2016-08-05T05:44:20.026Z,740
2016-08-05T05:47:33.813Z,791
2016-08-05T05:50:47.679Z,829
2016-08-05T05:54:01.472Z,950
2016-08-05T05:57:15.270Z,1056
2016-08-05T06:00:28.838Z,1064
2016-08-05T06:03:48.385Z,1142
2016-08-05T06:06:51.268Z,1157
2016-08-05T06:10:05.090Z,1207
2016-08-05T06:13:18.883Z,1267
2016-08-05T06:16:32.566Z,1315
2016-08-05T06:19:46.093Z,1488
2016-08-05T06:22:59.826Z,1612
2016-08-05T06:29:27.077Z,1490
2016-08-05T06:32:46.742Z,1372
2016-08-05T06:35:49.781Z,1324
2016-08-05T06:39:01.225Z,1388
2016-08-05T06:42:15.079Z,1313
2016-08-05T06:45:28.931Z,1310
2016-08-05T06:48:48.605Z,1320
2016-08-05T06:51:51.704Z,1459
2016-08-05T06:55:05.148Z,1559
2016-08-05T06:58:18.765Z,1871
2016-08-05T07:01:32.486Z,2137
2016-08-05T07:04:51.305Z,2348
2016-08-05T07:07:54.256Z,2490
2016-08-05T07:11:07.964Z,2753
2016-08-05T07:14:21.872Z,2547
2016-08-05T07:17:35.684Z,2433
2016-08-05T07:20:51.400Z,2582
2016-08-05T07:24:02.909Z,2305
2016-08-05T07:27:16.643Z,2332
2016-08-05T07:30:27.722Z,2276
2016-08-05T07:33:47.556Z,1997
2016-08-05T07:36:50.624Z,2354
2016-08-05T07:40:04.408Z,2098
2016-08-05T07:43:18.243Z,2150
2016-08-05T07:46:31.449Z,2416
2016-08-05T07:49:51.254Z,2250
2016-08-05T07:52:54.362Z,2666
2016-08-05T07:56:08.317Z,3181
2016-08-05T07:59:22.204Z,3361
2016-08-05T08:02:35.933Z,3580
2016-08-05T08:05:49.268Z,3385
2016-08-05T08:09:03.071Z,3736
2016-08-05T08:12:16.956Z,4108
2016-08-05T08:15:30.533Z,4336
2016-08-05T08:18:50.079Z,4608
2016-08-05T08:21:53.162Z,5355
2016-08-05T08:25:06.939Z,6060
2016-08-05T08:28:20.809Z,6807
2016-08-05T08:31:32.915Z,7138
2016-08-05T08:34:46.654Z,6784
2016-08-05T08:38:00.392Z,6294
2016-08-05T08:41:14.629Z,5315
2016-08-05T08:44:28.158Z,5619
2016-08-05T08:47:48.146Z,5293
2016-08-05T08:50:51.222Z,4520
2016-08-05T08:54:04.784Z,4133
2016-08-05T08:57:18.754Z,4405
2016-08-05T09:00:32.642Z,3961
2016-08-05T09:03:50.369Z,3254
2016-08-05T09:06:53.418Z,4417
2016-08-05T09:10:06.586Z,4573
2016-08-05T09:13:20.554Z,5255
2016-08-05T09:16:34.447Z,7070
2016-08-05T09:19:48.126Z,9796
2016-08-05T09:23:02.175Z,9482
2016-08-05T09:26:15.899Z,6167
2016-08-05T09:29:30.021Z,7814
2016-08-05T09:32:50.065Z,5859
2016-08-05T09:35:53.354Z,7444
2016-08-05T09:39:07.020Z,8786
2016-08-05T09:42:21.049Z,11288
2016-08-05T09:45:35.095Z,13092
2016-08-05T09:48:49.187Z,7935
2016-08-05T09:52:03.090Z,12286
2016-08-05T09:55:17.169Z,13996
2016-08-05T09:58:31.185Z,15143
2016-08-05T10:01:51.263Z,15463
2016-08-05T10:04:54.879Z,13053
2016-08-05T10:08:09.067Z,13720
2016-08-05T10:11:23.320Z,12052
2016-08-05T10:14:43.579Z,11119
2016-08-05T10:17:47.008Z,10788
2016-08-05T10:21:01.233Z,9100
2016-08-05T10:24:15.234Z,10125
2016-08-05T10:27:26.825Z,11698
2016-08-05T10:30:46.642Z,11585
2016-08-05T10:33:49.999Z,12031
2016-08-05T10:37:04.011Z,10664
2016-08-05T10:40:18.093Z,8929
2016-08-05T10:43:32.123Z,9995
2016-08-05T10:46:51.813Z,12168
2016-08-05T10:49:55.269Z,12720
2016-08-05T10:53:09.140Z,12369
2016-08-05T10:56:23.001Z,10645
2016-08-05T10:59:43.085Z,11002
2016-08-05T11:02:46.428Z,10083
2016-08-05T11:05:59.873Z,9133
2016-08-05T11:09:13.030Z,9741
2016-08-05T11:12:26.690Z,10454
2016-08-05T11:15:46.758Z,10474
2016-08-05T11:18:50.022Z,11218
2016-08-05T11:22:03.779Z,9542
2016-08-05T11:25:17.683Z,8830
2016-08-05T11:28:31.811Z,8470
2016-08-05T11:31:51.659Z,9158
2016-08-05T11:34:54.907Z,8581
2016-08-05T11:38:08.789Z,7696
2016-08-05T11:41:22.839Z,7903
2016-08-05T11:44:42.653Z,8017
2016-08-05T11:47:52.055Z,8154
2016-08-05T11:50:55.632Z,7240
2016-08-05T11:54:09.151Z,5693
2016-08-05T11:57:22.944Z,5326
2016-08-05T12:00:34.182Z,6220
2016-08-05T12:03:48.188Z,6261
2016-08-05T12:07:02.664Z,6557
2016-08-05T12:10:14.767Z,5907
2016-08-05T12:13:28.894Z,4999
2016-08-05T12:16:49.123Z,4825
2016-08-05T12:19:52.522Z,5706
2016-08-05T12:23:06.833Z,6879
2016-08-05T12:26:20.886Z,7377
2016-08-05T12:29:34.792Z,6349
2016-08-05T12:32:48.447Z,6287
2016-08-05T12:36:02.537Z,6071
2016-08-05T12:39:16.786Z,5224
2016-08-05T12:42:30.530Z,3887
2016-08-05T12:45:50.522Z,4381
2016-08-05T12:48:53.997Z,3870
2016-08-05T12:52:07.917Z,5464
2016-08-05T12:55:22.021Z,5505
2016-08-05T12:58:35.800Z,5996
2016-08-05T13:01:50.119Z,6292
2016-08-05T13:05:04.026Z,6785
2016-08-05T13:08:18.232Z,6086
2016-08-05T13:11:32.456Z,5147
2016-08-05T13:14:46.593Z,4935
2016-08-05T13:18:00.357Z,4266
2016-08-05T13:21:14.394Z,2481
2016-08-05T13:24:27.744Z,1335
2016-08-05T13:27:47.527Z,886
2016-08-05T13:30:50.945Z,545
2016-08-05T13:34:04.840Z,1560
2016-08-05T13:37:18.985Z,2665
2016-08-05T13:40:32.018Z,3258
2016-08-05T13:43:51.891Z,5109
2016-08-05T13:46:55.338Z,5931
2016-08-05T13:50:09.283Z,6336
2016-08-05T13:53:23.004Z,5746
2016-08-05T13:56:43.014Z,6489
2016-08-05T13:59:46.440Z,6945
2016-08-05T14:03:01.003Z,6476
2016-08-05T14:06:14.826Z,6192
2016-08-05T14:09:28.289Z,5725
2016-08-05T14:12:45.903Z,5122
2016-08-05T14:15:49.624Z,4855
2016-08-05T14:19:02.849Z,4516
2016-08-05T14:22:16.646Z,4315
2016-08-05T14:25:30.356Z,4122
2016-08-05T14:28:50.370Z,3828
2016-08-05T14:31:53.701Z,3561
2016-08-05T14:35:07.374Z,3902
2016-08-05T14:38:21.523Z,4583
2016-08-05T14:41:35.724Z,3428
2016-08-05T14:44:49.372Z,3374
2016-08-05T14:48:03.419Z,3189
2016-08-05T14:51:17.358Z,4048
2016-08-05T14:54:31.563Z,5310
2016-08-05T14:57:51.317Z,4234
2016-08-05T15:00:54.911Z,3344
2016-08-05T15:04:09.249Z,2708
2016-08-05T15:07:23.340Z,2389
2016-08-05T15:10:43.581Z,2266
2016-08-05T15:13:46.905Z,2818
2016-08-05T15:17:01.029Z,2937
2016-08-05T15:20:15.091Z,2633
2016-08-05T15:23:29.581Z,2909
2016-08-05T15:26:49.348Z,2925
2016-08-05T15:29:52.604Z,2800
2016-08-05T15:33:06.300Z,2781
2016-08-05T15:36:19.555Z,3117
2016-08-05T15:39:33.509Z,2893
2016-08-05T15:42:46.841Z,2849
2016-08-05T15:46:00.699Z,3035
2016-08-05T15:49:12.136Z,3197
2016-08-05T15:52:25.815Z,3186
2016-08-05T15:55:45.552Z,3096
2016-08-05T15:58:48.995Z,2987
2016-08-05T16:02:02.858Z,3009
2016-08-05T16:05:16.661Z,2924
2016-08-05T16:08:30.062Z,2915
2016-08-05T16:11:49.564Z,2750
2016-08-05T16:14:52.769Z,2385
2016-08-05T16:18:06.317Z,2494
2016-08-05T16:21:19.792Z,2808
2016-08-05T16:24:33.822Z,2835
2016-08-05T16:27:48.040Z,2700
2016-08-05T16:31:01.805Z,2549
2016-08-05T16:34:15.835Z,2386
2016-08-05T16:37:29.807Z,2263
2016-08-05T16:40:49.903Z,2093
2016-08-05T16:43:53.318Z,1994
2016-08-05T16:47:06.945Z,1817
2016-08-05T16:50:20.867Z,1559
2016-08-05T16:53:34.952Z,1391
2016-08-05T16:56:48.778Z,1315
2016-08-05T17:00:02.694Z,1304
2016-08-05T17:03:16.580Z,1442
2016-08-05T17:06:30.610Z,1521
2016-08-05T17:09:50.245Z,1500
2016-08-05T17:12:53.594Z,1587
2016-08-05T17:16:07.612Z,1425
2016-08-05T17:19:21.734Z,1310
2016-08-05T17:22:35.893Z,1212
2016-08-05T17:25:49.596Z,1210
2016-08-05T17:29:01.260Z,1119
2016-08-05T17:32:15.465Z,1046
2016-08-05T17:35:29.462Z,988
2016-08-05T17:38:49.230Z,976
2016-08-05T17:41:52.407Z,951
2016-08-05T17:45:06.491Z,915
2016-08-05T17:48:20.613Z,837
2016-08-05T17:51:34.362Z,759
2016-08-05T17:54:48.443Z,732
2016-08-05T17:58:02.604Z,666
2016-08-05T18:01:16.584Z,615
2016-08-05T18:04:30.473Z,568
2016-08-05T18:07:50.318Z,501
2016-08-05T18:10:53.663Z,450
2016-08-05T18:14:07.697Z,403
2016-08-05T18:17:21.615Z,350
2016-08-05T18:20:35.578Z,294
2016-08-05T18:23:49.357Z,246
2016-08-05T18:27:03.260Z,225
2016-08-05T18:30:17.269Z,187
2016-08-05T18:33:31.170Z,158
2016-08-05T18:36:51.313Z,144
2016-08-05T18:39:54.563Z,128
2016-08-05T18:43:06.255Z,111
2016-08-05T18:46:20.368Z,91
2016-08-05T18:49:34.402Z,70
2016-08-05T18:52:48.007Z,49
2016-08-05T18:56:02.107Z,30
2016-08-05T18:59:16.117Z,19
2016-08-05T19:02:30.191Z,14
2016-08-05T19:05:50.105Z,12
2016-08-05T19:08:53.235Z,8
2016-08-05T19:12:07.066Z,5
2016-08-05T19:15:20.441Z,4
2016-08-05T19:18:34.151Z,2
2016-08-05T19:21:48.251Z,1
2016-08-05T19:25:02.194Z,1
2016-08-05T19:28:16.169Z,1
2016-08-05T19:31:30.162Z,1
2016-08-05T19:34:49.605Z,0
2016-08-05T19:37:52.857Z,0
2016-08-05T19:41:06.064Z,0
2016-08-05T19:44:19.458Z,0
2016-08-05T19:47:32.598Z,0
2016-08-05T19:50:52.210Z,0
2016-08-05T19:53:55.280Z,0
2016-08-05T19:57:08.615Z,0
2016-08-05T20:00:22.188Z,0
2016-08-05T20:03:33.226Z,0
2016-08-05T20:06:47.182Z,0
2016-08-05T20:10:00.334Z,0
2016-08-05T20:13:13.827Z,0
2016-08-05T20:16:27.719Z,0
2016-08-05T20:19:47.129Z,0
2016-08-05T20:22:50.288Z,0
2016-08-05T20:26:01.100Z,0
2016-08-05T20:32:28.267Z,0
2016-08-05T20:35:47.740Z,0
2016-08-05T20:38:50.849Z,0
2016-08-05T20:42:04.205Z,0
2016-08-05T20:45:17.582Z,0
2016-08-05T20:48:31.030Z,0
2016-08-05T20:51:50.616Z,0
2016-08-05T20:54:53.610Z,0
2016-08-05T20:58:07.324Z,0
2016-08-05T21:01:20.114Z,0
2016-08-05T21:04:33.049Z,0
2016-08-05T21:07:52.291Z,0
2016-08-05T21:10:55.275Z,0
2016-08-05T21:14:08.691Z,0
2016-08-05T21:17:22.075Z,0
2016-08-05T21:20:35.756Z,0
2016-08-05T21:23:49.112Z,0
2016-08-05T21:27:02.842Z,0
2016-08-05T21:30:16.346Z,0
2016-08-05T21:33:29.879Z,0
2016-08-05T21:36:49.624Z,0
2016-08-05T21:39:52.698Z,0
2016-08-05T21:43:05.989Z,0
2016-08-05T21:46:19.421Z,0
2016-08-05T21:49:32.971Z,0
2016-08-05T21:52:46.676Z,0
2016-08-05T21:55:58.312Z,0
2016-08-05T21:59:11.683Z,0
2016-08-05T22:02:25.311Z,0
2016-08-05T22:05:44.688Z,0
2016-08-05T22:08:47.650Z,0
2016-08-05T22:12:01.053Z,0
2016-08-05T22:15:14.533Z,0
2016-08-05T22:18:28.148Z,0
2016-08-05T22:21:47.650Z,0
2016-08-05T22:24:50.649Z,0
2016-08-05T22:28:04.260Z,0
2016-08-05T22:31:17.764Z,0
2016-08-05T22:34:31.036Z,0
2016-08-05T22:37:51.018Z,0
2016-08-05T22:40:54.060Z,0
2016-08-05T22:44:07.306Z,0
2016-08-05T22:47:20.263Z,0
2016-08-05T22:50:33.786Z,0
2016-08-05T22:53:47.925Z,0
2016-08-05T22:56:58.611Z,0
2016-08-05T23:00:12.453Z,0
2016-08-05T23:03:26.238Z,0
2016-08-05T23:06:46.142Z,0
2016-08-05T23:09:49.124Z,0
2016-08-05T23:13:02.716Z,0
2016-08-05T23:16:16.345Z,0
2016-08-05T23:19:29.776Z,0
2016-08-05T23:22:49.310Z,0
2016-08-05T23:25:52.405Z,0
2016-08-05T23:29:06.115Z,0
2016-08-05T23:32:19.798Z,0
2016-08-05T23:35:33.466Z,0
2016-08-05T23:38:53.050Z,0
2016-08-05T23:41:56.138Z,0
2016-08-05T23:45:09.424Z,0
2016-08-05T23:48:21.107Z,0
2016-08-05T23:51:34.183Z,0
2016-08-05T23:54:47.937Z,0
2016-08-05T23:58:01.528Z,0
